Time;durP1;ratioP1;P1;durP2;ratioP2;P2;SDS_P1;SDS_P2;PMS_P1;PMS_P2;Temp;Humidity;BMP_temperature;BMP_pressure;BME280_temperature;BME280_humidity;BME280_pressure;Samples;Min_cycle;Max_cycle;Signal;HPM_P1;HPM_P2
2022/03/20 00:00:50;;;;;;;;;21.20;19.40;;;;;5.78;55.18;101577.34;5093368;28;8853;-62
2022/03/20 00:03:18;;;;;;;;;24.20;19.00;;;;;5.73;54.84;101568.75;5093294;28;8838;-63
2022/03/20 00:05:46;;;;;;;;;13.00;12.80;;;;;5.69;55.36;101560.97;5093502;28;8865;-62
2022/03/20 00:08:13;;;;;;;;;20.80;17.40;;;;;5.66;54.78;101561.06;5093077;28;8842;-62
2022/03/20 00:10:42;;;;;;;;;18.00;17.20;;;;;5.63;55.62;101559.38;5093691;28;9519;-61
2022/03/20 00:13:10;;;;;;;;;18.80;18.60;;;;;5.60;55.60;101553.34;5092971;28;8830;-63
2022/03/20 00:15:40;;;;;;;;;13.00;13.00;;;;;5.57;55.37;101551.69;5093500;28;8834;-63
2022/03/20 00:18:08;;;;;;;;;19.40;17.60;;;;;5.54;55.54;101553.56;5093108;28;8938;-63
2022/03/20 00:20:36;;;;;;;;;18.80;16.80;;;;;5.51;55.67;101565.09;5108924;28;8808;-62
2022/03/20 00:23:07;;;;;;;;;22.80;21.40;;;;;5.47;55.56;101554.69;5113206;28;8855;-62
2022/03/20 00:25:36;;;;;;;;;17.60;17.60;;;;;5.43;55.50;101550.41;5114493;28;8978;-62
2022/03/20 00:28:04;;;;;;;;;19.60;17.20;;;;;5.41;55.53;101546.94;5115493;28;8824;-62
2022/03/20 00:30:32;;;;;;;;;17.60;16.80;;;;;5.37;55.70;101543.53;5115419;28;8827;-62
2022/03/20 00:32:59;;;;;;;;;19.00;17.20;;;;;5.34;55.97;101538.38;5115618;28;8946;-63
2022/03/20 00:35:27;;;;;;;;;22.00;18.60;;;;;5.30;56.01;101535.84;5115096;28;8839;-63
2022/03/20 00:37:55;;;;;;;;;15.60;15.20;;;;;5.27;56.06;101536.84;5115335;28;8883;-62
2022/03/20 00:40:23;;;;;;;;;16.40;15.00;;;;;5.24;55.65;101536.09;5115613;28;8820;-63
2022/03/20 00:42:51;;;;;;;;;12.40;10.20;;;;;5.20;56.15;101535.31;5115197;28;8840;-63
2022/03/20 00:45:18;;;;;;;;;19.20;17.20;;;;;5.17;55.68;101537.19;5115509;28;8828;-63
2022/03/20 00:47:48;;;;;;;;;17.60;15.20;;;;;5.11;56.10;101532.09;5115302;28;8863;-63
2022/03/20 00:50:15;;;;;;;;;19.40;16.60;;;;;5.07;55.86;101535.72;5102313;28;8810;-62
2022/03/20 00:52:43;;;;;;;;;16.20;15.20;;;;;5.05;56.21;101527.00;5094417;28;8829;-63
2022/03/20 00:55:11;;;;;;;;;21.40;20.20;;;;;5.04;55.95;101527.94;5094658;28;8974;-63
2022/03/20 00:57:39;;;;;;;;;14.60;13.80;;;;;5.03;56.17;101524.41;5094652;28;8941;-63
2022/03/20 01:00:06;;;;;;;;;21.00;19.20;;;;;5.03;56.25;101524.41;5094903;28;8841;-63
2022/03/20 01:02:36;;;;;;;;;17.60;17.60;;;;;5.02;56.00;101511.28;5094338;28;8826;-62
2022/03/20 01:05:03;;;;;;;;;13.00;13.00;;;;;5.00;56.33;101510.44;5096557;28;8980;-63
2022/03/20 01:07:31;;;;;;;;;23.80;20.80;;;;;4.99;56.00;101503.44;5098582;28;8822;-63
2022/03/20 01:10:01;;;;;;;;;11.80;11.20;;;;;4.98;56.15;101494.69;5098230;28;8861;-62
2022/03/20 01:12:29;;;;;;;;;20.80;18.60;;;;;4.96;56.35;101490.34;5098337;28;8833;-63
2022/03/20 01:14:56;;;;;;;;;17.40;15.80;;;;;4.94;56.26;101490.41;5098288;28;8951;-64
2022/03/20 01:17:24;;;;;;;;;22.20;20.40;;;;;4.94;55.57;101495.69;5098319;28;8841;-63
2022/03/20 01:19:52;;;;;;;;;19.20;14.20;;;;;4.92;55.46;101491.34;5110145;28;8812;-63
2022/03/20 01:22:20;;;;;;;;;20.60;15.40;;;;;4.89;56.34;101487.06;5118477;28;8828;-63
2022/03/20 01:24:48;;;;;;;;;20.20;18.20;;;;;4.86;56.19;101478.38;5118734;28;8840;-63
2022/03/20 01:27:16;;;;;;;;;16.80;16.00;;;;;4.85;55.77;101471.34;5118546;28;9509;-63
2022/03/20 01:29:44;;;;;;;;;19.80;17.60;;;;;4.83;56.14;101468.78;5118521;28;8924;-62
2022/03/20 01:32:12;;;;;;;;;18.60;15.20;;;;;4.80;55.99;101458.31;5118271;28;8839;-64
2022/03/20 01:34:40;;;;;;;;;23.40;19.60;;;;;4.78;55.96;101454.00;5118727;28;8815;-62
2022/03/20 01:37:08;;;;;;;;;19.00;16.80;;;;;4.79;55.93;101458.38;5117292;28;8867;-62
2022/03/20 01:39:36;;;;;;;;;15.40;14.20;;;;;4.78;56.30;101448.75;5117859;28;9469;-64
2022/03/20 01:42:04;;;;;;;;;10.80;9.40;;;;;4.77;55.86;101442.59;5118637;28;8834;-62
2022/03/20 01:44:32;;;;;;;;;18.40;17.20;;;;;4.77;56.20;101446.97;5118232;28;8831;-63
2022/03/20 01:46:59;;;;;;;;;12.60;10.00;;;;;4.77;55.94;101433.78;5118665;28;8836;-62
2022/03/20 01:49:27;;;;;;;;;13.00;12.00;;;;;4.77;56.36;101437.31;5108079;28;8838;-64
2022/03/20 01:52:13;;;;;;;;;15.80;12.20;;;;;4.78;55.73;101427.63;5097368;28;8956;-62
2022/03/20 01:54:41;;;;;;;;;14.20;13.80;;;;;4.79;56.07;101421.44;5097424;28;8834;-64
2022/03/20 01:57:09;;;;;;;;;8.60;8.60;;;;;4.80;55.91;101412.59;5097493;28;8858;-63
2022/03/20 01:59:37;;;;;;;;;15.00;13.00;;;;;4.80;55.69;101416.09;5097548;28;8814;-63
2022/03/20 02:02:05;;;;;;;;;15.00;12.80;;;;;4.81;55.51;101414.31;5097010;28;8956;-64
2022/03/20 02:04:33;;;;;;;;;19.00;17.20;;;;;4.80;55.68;101402.88;5097323;28;8842;-63
2022/03/20 02:07:02;;;;;;;;;19.80;15.80;;;;;4.80;55.71;101404.69;5097614;28;9622;-62
2022/03/20 02:09:29;;;;;;;;;26.00;21.20;;;;;4.81;55.69;101395.84;5097004;28;9487;-63
2022/03/20 02:11:57;;;;;;;;;16.80;15.60;;;;;4.82;55.96;101394.94;5097868;28;8838;-64
2022/03/20 02:14:25;;;;;;;;;14.00;13.40;;;;;4.84;55.79;101390.47;5097265;28;8838;-62
2022/03/20 02:16:53;;;;;;;;;12.20;11.20;;;;;4.87;55.90;101387.75;5096217;28;9780;-62
2022/03/20 02:19:20;;;;;;;;;21.80;18.20;;;;;4.88;55.34;101395.59;5106715;28;9461;-62
2022/03/20 02:21:49;;;;;;;;;11.80;11.00;;;;;4.91;55.68;101376.16;5102645;28;8826;-62
2022/03/20 02:24:17;;;;;;;;;13.80;13.00;;;;;4.93;55.53;101377.84;5096883;28;8988;-62
2022/03/20 02:26:45;;;;;;;;;21.60;20.20;;;;;4.96;55.16;101372.47;5097552;28;8862;-63
2022/03/20 02:29:12;;;;;;;;;19.20;18.20;;;;;4.97;54.99;101378.59;5096740;28;8848;-62
2022/03/20 02:31:40;;;;;;;;;15.80;15.80;;;;;4.97;55.79;101368.03;5097132;28;8949;-62
2022/03/20 02:34:08;;;;;;;;;18.60;17.20;;;;;5.00;55.51;101375.84;5096774;28;8911;-62
2022/03/20 02:36:39;;;;;;;;;18.00;16.40;;;;;5.02;55.54;101363.47;5097170;28;8822;-63
2022/03/20 02:39:06;;;;;;;;;21.40;18.60;;;;;5.04;55.52;101359.00;5096510;28;8853;-63
2022/03/20 02:41:34;;;;;;;;;18.80;15.60;;;;;5.05;54.93;101355.44;5096941;28;8826;-63
2022/03/20 02:44:02;;;;;;;;;4.00;3.00;;;;;5.06;55.51;101359.78;5096640;28;8853;-62
2022/03/20 02:46:31;;;;;;;;;21.60;16.00;;;;;5.06;55.14;101352.75;5098022;28;8856;-62
2022/03/20 02:49:00;;;;;;;;;17.60;14.40;;;;;5.08;54.68;101353.56;5097205;28;8849;-63
2022/03/20 02:51:28;;;;;;;;;17.60;17.00;;;;;5.12;55.20;101349.03;5096365;28;8855;-63
2022/03/20 02:53:55;;;;;;;;;21.40;16.80;;;;;5.14;54.60;101350.72;5096589;28;9464;-63
2022/03/20 02:56:23;;;;;;;;;19.00;15.80;;;;;5.15;54.55;101343.63;5096294;28;8846;-62
2022/03/20 02:58:51;;;;;;;;;12.80;12.20;;;;;5.14;54.58;101337.50;5095496;28;8845;-63
2022/03/20 03:01:18;;;;;;;;;20.80;19.80;;;;;5.16;54.28;101337.47;5096362;28;8992;-64
2022/03/20 03:03:48;;;;;;;;;18.80;16.80;;;;;5.17;54.29;101334.75;5096337;28;8930;-62
2022/03/20 03:06:16;;;;;;;;;14.60;14.60;;;;;5.20;54.61;101331.13;5096155;28;8956;-63
2022/03/20 03:11:29;;;;;;;;;16.60;16.40;;;;;5.22;54.30;101316.09;5096268;28;9705;-67
2022/03/20 03:15:18;;;;;;;;;12.60;12.40;;;;;5.23;54.39;101323.13;5096154;28;8910;-63
2022/03/20 03:16:44;;;;;;;;;15.00;14.60;;;;;5.24;54.04;101316.94;5108198;28;8824;-63
2022/03/20 03:19:15;;;;;;;;;21.40;19.80;;;;;5.24;54.17;101315.13;5116795;28;8854;-62
2022/03/20 03:21:43;;;;;;;;;19.80;16.80;;;;;5.25;53.84;101310.72;5116311;28;8844;-67
2022/03/20 03:24:10;;;;;;;;;17.60;17.20;;;;;5.27;54.01;101308.88;5116102;28;8839;-63
2022/03/20 03:26:38;;;;;;;;;21.60;18.80;;;;;5.26;53.69;101297.44;5116043;28;8864;-62
2022/03/20 03:29:06;;;;;;;;;15.80;14.60;;;;;5.28;53.76;101300.03;5115243;28;8976;-63
2022/03/20 03:31:34;;;;;;;;;19.80;19.40;;;;;5.27;53.74;101291.28;5116308;28;8853;-62
2022/03/20 03:36:47;;;;;;;;;16.80;15.40;;;;;5.29;53.96;101291.19;5116345;28;8839;-62
2022/03/20 03:39:15;;;;;;;;;13.60;10.40;;;;;5.30;53.74;101277.94;5116343;28;8835;-62
2022/03/20 03:41:43;;;;;;;;;20.40;18.00;;;;;5.30;53.57;101274.44;5116648;28;8824;-62
2022/03/20 03:44:11;;;;;;;;;12.60;10.00;;;;;5.29;53.48;101268.31;5116172;28;8832;-63
2022/03/20 03:46:39;;;;;;;;;13.00;13.00;;;;;5.30;53.29;101272.66;5104105;28;8837;-63
2022/03/20 03:49:07;;;;;;;;;16.00;14.40;;;;;5.31;53.43;101262.97;5096263;28;8903;-62
2022/03/20 03:51:35;;;;;;;;;19.60;18.00;;;;;5.30;53.45;101264.75;5095455;28;8829;-64
2022/03/20 03:54:03;;;;;;;;;15.00;13.40;;;;;5.30;53.31;101256.81;5095770;28;8826;-62
2022/03/20 03:56:31;;;;;;;;;16.80;14.20;;;;;5.30;53.64;101259.47;5095809;28;8887;-63
2022/03/20 03:58:59;;;;;;;;;21.60;18.80;;;;;5.29;53.23;101249.81;5095361;28;8968;-62
2022/03/20 04:01:26;;;;;;;;;20.00;18.40;;;;;5.30;53.16;101248.91;5095569;28;8840;-62
2022/03/20 04:03:55;;;;;;;;;20.00;17.40;;;;;5.29;52.85;101251.59;5095607;28;8830;-62
2022/03/20 04:06:22;;;;;;;;;19.80;17.20;;;;;5.27;52.67;101240.22;5096110;28;8846;-62
2022/03/20 04:08:50;;;;;;;;;17.20;16.80;;;;;5.26;53.11;101239.34;5095161;28;8982;-62
2022/03/20 04:11:18;;;;;;;;;11.80;11.60;;;;;5.22;52.61;101239.53;5095402;28;8826;-62
2022/03/20 04:13:47;;;;;;;;;18.00;15.00;;;;;5.20;52.54;101233.44;5095115;28;8960;-61
2022/03/20 04:16:15;;;;;;;;;17.00;15.60;;;;;5.17;52.51;101238.88;5105743;28;8800;-63
2022/03/20 04:18:44;;;;;;;;;15.60;15.60;;;;;5.12;53.02;101235.53;5115407;28;8844;-63
2022/03/20 04:21:12;;;;;;;;;19.20;16.00;;;;;5.08;52.88;101228.66;5115552;28;8863;-63
2022/03/20 04:23:49;;;;;;;;;17.60;17.60;;;;;5.04;52.79;101216.47;5115943;28;8820;-62
2022/03/20 04:26:17;;;;;;;;;15.40;15.20;;;;;5.03;53.02;101226.16;5115700;28;8867;-63
2022/03/20 04:28:46;;;;;;;;;19.40;16.80;;;;;5.02;52.90;101213.88;5115167;28;8832;-63
2022/03/20 04:31:15;;;;;;;;;19.40;18.20;;;;;5.02;52.70;101213.03;5115747;28;8953;-63
2022/03/20 04:33:44;;;;;;;;;14.20;13.00;;;;;5.02;52.61;101207.75;5115746;28;8846;-63
2022/03/20 04:36:11;;;;;;;;;21.80;19.20;;;;;5.02;52.47;101207.75;5115835;28;8834;-63
2022/03/20 04:38:39;;;;;;;;;16.00;14.60;;;;;5.02;52.16;101208.59;5115300;28;8838;-62
2022/03/20 04:41:06;;;;;;;;;18.00;15.00;;;;;5.02;52.20;101202.47;5119482;28;8835;-62
2022/03/20 04:43:35;;;;;;;;;15.00;14.00;;;;;5.00;52.10;101204.28;5119140;28;8823;-63
2022/03/20 04:46:02;;;;;;;;;19.00;18.00;;;;;4.99;52.61;101202.56;5102167;28;8837;-62
2022/03/20 04:59:30;;;;;;;;;14.60;12.20;;;;;4.91;52.56;101202.84;5098896;28;8971;-65
2022/03/20 05:01:58;;;;;;;;;14.60;12.80;;;;;4.88;51.97;101200.31;5099196;28;9499;-63
2022/03/20 05:04:27;;;;;;;;;17.80;16.40;;;;;4.85;52.00;101200.44;5098962;28;8830;-63
2022/03/20 05:06:54;;;;;;;;;11.60;9.80;;;;;4.81;52.64;101195.34;5098720;28;8842;-63
2022/03/20 05:14:52;;;;;;;;;16.20;15.40;;;;;4.67;52.42;101184.41;5103999;28;8946;-63
2022/03/20 05:17:20;;;;;;;;;10.80;9.60;;;;;4.63;52.43;101180.19;5119002;28;9268;-62
2022/03/20 05:19:48;;;;;;;;;19.00;18.20;;;;;4.57;52.99;101178.59;5118470;28;8824;-65
2022/03/20 05:22:15;;;;;;;;;16.40;15.80;;;;;4.51;52.94;101177.97;5118158;28;8840;-62
2022/03/20 05:24:43;;;;;;;;;13.80;13.40;;;;;4.42;52.92;101186.19;5118175;28;8954;-62
2022/03/20 05:27:10;;;;;;;;;18.20;18.00;;;;;4.33;53.09;101189.16;5118865;28;8850;-63
2022/03/20 05:29:40;;;;;;;;;15.00;13.00;;;;;4.28;52.74;101191.91;5118889;28;8835;-67
2022/03/20 05:32:08;;;;;;;;;14.20;12.40;;;;;4.23;52.90;101190.38;5118536;28;8846;-63
2022/03/20 05:34:36;;;;;;;;;17.60;15.20;;;;;4.19;52.71;101186.13;5117791;28;8835;-62
2022/03/20 05:37:06;;;;;;;;;23.60;20.20;;;;;4.13;53.34;101192.44;5118196;28;8956;-63
2022/03/20 05:39:34;;;;;;;;;12.40;10.80;;;;;4.08;53.45;101204.06;5118310;28;8958;-64
2022/03/20 05:42:01;;;;;;;;;16.60;16.00;;;;;4.02;53.07;101196.34;5118077;28;8852;-63
2022/03/20 05:44:29;;;;;;;;;19.00;16.80;;;;;3.99;54.04;101193.81;5115587;28;8842;-62
2022/03/20 05:46:58;;;;;;;;;16.80;15.80;;;;;3.96;53.78;101204.47;5097177;28;8818;-62
2022/03/20 05:49:25;;;;;;;;;15.00;12.80;;;;;3.94;53.55;101191.34;5103319;28;8818;-63
2022/03/20 05:51:54;;;;;;;;;13.20;12.20;;;;;3.93;53.25;101186.13;5116624;28;8816;-62
2022/03/20 05:54:23;;;;;;;;;13.80;11.00;;;;;3.89;53.58;101181.88;5117763;28;8959;-62
2022/03/20 05:59:36;;;;;;;;;13.00;12.00;;;;;3.82;53.25;101172.44;5117905;28;8997;-63
2022/03/20 06:02:04;;;;;;;;;20.40;19.60;;;;;3.81;53.85;101168.09;5117939;28;8842;-62
2022/03/20 06:04:33;;;;;;;;;15.60;15.60;;;;;3.80;53.39;101172.50;5117801;28;8985;-64
2022/03/20 06:07:00;;;;;;;;;17.60;16.40;;;;;3.78;53.48;101171.69;5117567;28;8949;-63
2022/03/20 06:09:28;;;;;;;;;21.00;17.20;;;;;3.78;53.48;101161.16;5116973;28;8836;-63
2022/03/20 06:11:56;;;;;;;;;14.40;14.40;;;;;3.78;53.20;101155.00;5117730;28;8835;-63
2022/03/20 06:14:29;;;;;;;;;14.20;12.60;;;;;3.82;53.15;101159.28;5117773;28;8835;-62
2022/03/20 06:16:56;;;;;;;;;12.80;10.40;;;;;3.84;53.52;101162.72;5117704;28;8858;-64
2022/03/20 06:19:24;;;;;;;;;16.40;15.60;;;;;3.87;53.69;101157.34;5112629;28;8837;-63
2022/03/20 06:21:52;;;;;;;;;17.20;15.80;;;;;3.90;52.81;101157.25;5097064;28;9512;-62
2022/03/20 06:24:20;;;;;;;;;16.80;15.40;;;;;3.91;53.21;101153.69;5096872;28;8976;-63
2022/03/20 06:26:47;;;;;;;;;12.00;10.80;;;;;3.92;53.34;101148.38;5097145;28;8838;-62
2022/03/20 06:29:15;;;;;;;;;13.40;12.00;;;;;3.95;53.21;101145.63;5097070;28;8822;-62
2022/03/20 06:31:43;;;;;;;;;16.00;15.00;;;;;4.00;52.79;101141.09;5096899;28;8842;-63
2022/03/20 06:34:11;;;;;;;;;21.40;18.60;;;;;4.01;53.35;101134.91;5097071;28;8850;-63
2022/03/20 06:36:39;;;;;;;;;15.00;12.00;;;;;4.02;53.06;101138.38;5096000;28;8989;-64
2022/03/20 06:39:07;;;;;;;;;15.80;15.60;;;;;4.04;52.42;101144.47;5095369;28;9514;-63
2022/03/20 06:41:35;;;;;;;;;14.00;13.60;;;;;4.06;53.06;101142.66;5095187;28;9651;-64
2022/03/20 06:44:05;;;;;;;;;16.00;15.40;;;;;4.06;53.00;101163.72;5095244;28;8841;-63
2022/03/20 06:46:37;;;;;;;;;16.00;13.80;;;;;4.04;52.64;101158.50;5095104;28;8845;-62
2022/03/20 06:49:06;;;;;;;;;19.00;15.20;;;;;4.06;52.36;101179.53;5097134;28;8842;-63
2022/03/20 06:51:34;;;;;;;;;21.40;17.20;;;;;4.07;52.47;101175.97;5115972;28;8832;-63
2022/03/20 06:54:02;;;;;;;;;12.80;12.20;;;;;4.09;52.69;101179.41;5116000;28;8974;-64
2022/03/20 06:56:30;;;;;;;;;19.60;16.00;;;;;4.11;52.22;101183.72;5115312;28;8951;-62
2022/03/20 06:58:57;;;;;;;;;19.00;16.80;;;;;4.14;52.78;101183.66;5102290;28;8862;-62
2022/03/20 07:01:26;;;;;;;;;9.80;9.80;;;;;4.20;52.30;101179.94;5111492;28;8858;-63
2022/03/20 07:03:55;;;;;;;;;7.20;4.20;;;;;4.26;52.54;101182.38;5116050;28;8835;-63
2022/03/20 07:06:26;;;;;;;;;12.60;12.20;;;;;4.33;52.10;101173.34;5116400;28;8864;-63
2022/03/20 07:08:58;;;;;;;;;13.40;13.00;;;;;4.39;52.59;101170.47;5116425;28;8832;-62
2022/03/20 07:11:32;;;;;;;;;13.80;13.80;;;;;4.46;52.44;101171.97;5116285;28;8864;-62
2022/03/20 07:14:01;;;;;;;;;15.80;15.80;;;;;4.55;52.66;101171.66;5116824;28;9853;-62
2022/03/20 07:16:30;;;;;;;;;19.00;15.80;;;;;4.65;51.95;101162.50;5116949;28;8880;-63
2022/03/20 07:18:58;;;;;;;;;16.80;15.20;;;;;4.77;51.51;101164.69;5116276;28;8820;-64
2022/03/20 07:21:26;;;;;;;;;12.80;11.20;;;;;4.91;51.19;101163.28;5116240;28;8824;-62
2022/03/20 07:23:54;;;;;;;;;16.80;16.80;;;;;5.06;51.20;101161.84;5115326;28;8819;-66
2022/03/20 07:31:54;;;;;;;;;20.20;17.20;;;;;5.48;50.66;101149.63;5113455;28;8804;-64
2022/03/20 07:34:22;;;;;;;;;18.40;18.20;;;;;5.60;50.86;101149.13;5115313;28;8866;-63
2022/03/20 07:36:50;;;;;;;;;23.20;22.80;;;;;5.74;50.32;101152.06;5116134;28;8863;-64
2022/03/20 07:39:18;;;;;;;;;13.20;13.00;;;;;5.88;50.31;101148.00;5115855;28;8823;-62
2022/03/20 07:41:45;;;;;;;;;19.00;17.40;;;;;6.04;49.89;101143.78;5115551;28;8847;-63
2022/03/20 07:44:14;;;;;;;;;16.40;13.80;;;;;6.18;49.17;101138.78;5116053;28;8966;-63
2022/03/20 07:46:41;;;;;;;;;15.40;11.40;;;;;6.30;49.65;101134.75;5115533;28;8857;-63
2022/03/20 07:49:09;;;;;;;;;10.40;9.00;;;;;6.40;49.58;101133.41;5114704;28;8828;-63
2022/03/20 07:51:37;;;;;;;;;15.80;14.80;;;;;6.46;49.55;101130.50;5115063;28;8832;-63
2022/03/20 07:54:07;;;;;;;;;19.00;16.80;;;;;6.50;49.43;101127.66;5115777;28;9010;-63
2022/03/20 07:56:35;;;;;;;;;20.80;18.80;;;;;6.61;49.02;101112.13;5116150;28;8846;-63
2022/03/20 07:59:05;;;;;;;;;16.20;15.00;;;;;6.71;49.19;101117.88;5099417;28;8834;-63
2022/03/20 08:01:33;;;;;;;;;19.40;16.80;;;;;6.80;49.15;101109.53;5095389;28;9507;-63
2022/03/20 08:04:02;;;;;;;;;20.60;15.80;;;;;6.93;49.06;101102.75;5094556;28;8864;-63
2022/03/20 08:06:30;;;;;;;;;15.60;14.60;;;;;7.05;48.63;101100.38;5095056;28;8977;-65
2022/03/20 08:08:59;;;;;;;;;16.60;14.60;;;;;7.18;48.67;101088.28;5095277;28;8838;-63
2022/03/20 08:11:27;;;;;;;;;17.60;16.40;;;;;7.31;48.48;101086.78;5094908;28;8856;-63
2022/03/20 08:13:55;;;;;;;;;17.40;15.80;;;;;7.42;48.22;101086.25;5095150;28;8840;-64
2022/03/20 08:16:25;;;;;;;;;22.20;21.40;;;;;7.53;48.03;101087.47;5098800;28;8842;-64
2022/03/20 08:18:54;;;;;;;;;18.00;15.40;;;;;7.62;47.58;101084.34;5099123;28;8838;-63
2022/03/20 08:21:22;;;;;;;;;19.20;17.40;;;;;7.74;48.27;101081.94;5099200;28;9570;-64
2022/03/20 08:23:49;;;;;;;;;18.20;16.40;;;;;7.90;47.17;101090.84;5098997;28;8836;-63
2022/03/20 08:26:18;;;;;;;;;17.40;13.80;;;;;8.06;47.40;101081.16;5099010;28;8830;-64
2022/03/20 08:28:46;;;;;;;;;23.20;22.00;;;;;8.28;46.78;101076.50;5100144;28;8969;-63
2022/03/20 08:31:14;;;;;;;;;21.80;18.40;;;;;8.54;46.77;101057.44;5099433;28;8872;-64
2022/03/20 08:33:42;;;;;;;;;12.80;11.60;;;;;8.79;46.47;101052.50;5099593;28;8852;-64
2022/03/20 08:36:09;;;;;;;;;17.80;16.20;;;;;9.02;46.14;101044.13;5098676;28;9514;-64
2022/03/20 08:38:37;;;;;;;;;25.40;22.00;;;;;9.17;45.90;101045.91;5098712;28;8960;-68
2022/03/20 08:41:05;;;;;;;;;15.80;13.00;;;;;9.29;45.70;101039.91;5099163;28;8976;-64
2022/03/20 08:43:33;;;;;;;;;20.60;18.60;;;;;9.41;45.51;101035.72;5099041;28;8837;-64
2022/03/20 08:46:01;;;;;;;;;24.00;21.00;;;;;9.55;45.54;101023.31;5098475;28;8976;-64
2022/03/20 08:48:29;;;;;;;;;27.00;23.80;;;;;9.69;45.31;101015.41;5098277;28;8838;-64
2022/03/20 08:50:56;;;;;;;;;24.20;20.80;;;;;9.91;45.09;101009.66;5098438;28;8851;-64
2022/03/20 08:53:27;;;;;;;;;26.80;20.60;;;;;10.11;44.95;101002.19;5098900;28;8830;-63
2022/03/20 08:55:55;;;;;;;;;21.80;18.20;;;;;10.31;44.46;100995.69;5098139;28;8846;-63
2022/03/20 08:58:23;;;;;;;;;24.20;19.60;;;;;10.62;44.15;100992.81;5105666;28;8806;-64
2022/03/20 09:00:50;;;;;;;;;24.60;22.20;;;;;10.87;44.02;100992.97;5098337;28;8826;-64
2022/03/20 09:03:19;;;;;;;;;31.60;29.20;;;;;11.03;43.81;100983.88;5098248;28;8830;-64
2022/03/20 09:05:46;;;;;;;;;36.20;31.60;;;;;11.28;43.49;100978.66;5098075;28;8848;-63
2022/03/20 09:08:14;;;;;;;;;14.00;10.40;;;;;11.56;42.95;100978.53;5096372;28;8826;-64
2022/03/20 09:10:42;;;;;;;;;34.20;26.40;;;;;11.88;43.13;100960.34;5096891;28;8838;-64
2022/03/20 09:13:10;;;;;;;;;27.20;23.20;;;;;12.18;42.40;100957.31;5093012;28;8968;-64
2022/03/20 09:15:40;;;;;;;;;28.25;24.50;;;;;12.62;42.26;100957.66;5096427;28;8841;-63
2022/03/20 09:21:08;;;;;;;;;31.75;27.50;;;;;13.75;40.23;100946.50;4997496;28;8898;-64
2022/03/20 09:23:36;;;;;;;;;31.50;29.50;;;;;14.06;39.80;100943.16;5013524;28;8839;-64
2022/03/20 09:26:04;;;;;;;;;30.00;28.00;;;;;14.15;39.89;100929.03;5050850;28;8832;-62
2022/03/20 09:28:34;;;;;;;;;26.25;21.00;;;;;14.05;40.05;100930.72;5108189;28;8911;-64
2022/03/20 09:31:01;;;;;;;;;33.50;29.50;;;;;13.95;39.98;100937.75;5116440;28;8909;-64
2022/03/20 09:33:30;;;;;;;;;30.75;23.50;;;;;13.82;40.45;100929.81;5117889;28;8857;-61
2022/03/20 09:35:57;;;;;;;;;35.50;30.00;;;;;13.63;40.65;100920.66;5117606;28;8825;-64
2022/03/20 09:38:26;;;;;;;;;23.25;21.50;;;;;13.37;41.39;100906.56;5117930;28;9591;-61
2022/03/20 09:40:53;;;;;;;;;25.50;24.00;;;;;13.20;41.05;100915.03;5117754;28;8853;-61
2022/03/20 09:43:21;;;;;;;;;29.00;27.75;;;;;13.06;40.79;100930.41;5117494;28;8867;-61
2022/03/20 09:45:49;;;;;;;;;31.25;27.25;;;;;13.05;40.99;100945.59;5117869;28;8847;-62
2022/03/20 09:48:17;;;;;;;;;29.50;28.00;;;;;13.16;41.18;100944.78;5117993;28;8826;-64
2022/03/20 09:50:46;;;;;;;;;26.50;19.00;;;;;13.21;41.30;100958.69;5117689;28;8841;-62
2022/03/20 09:53:13;;;;;;;;;34.00;29.00;;;;;13.25;40.68;100965.50;5116554;28;8859;-61
2022/03/20 09:55:42;;;;;;;;;26.25;23.00;;;;;13.19;41.38;100963.28;5116069;28;8822;-63
2022/03/20 09:58:10;;;;;;;;;29.50;27.75;;;;;13.10;41.15;100962.16;5106876;28;8831;-62
2022/03/20 10:00:39;;;;;;;;;18.50;16.00;;;;;13.11;41.00;100966.53;5095647;28;8843;-62
2022/03/20 10:03:07;;;;;;;;;32.00;31.50;;;;;13.24;40.69;100966.47;5095919;28;8871;-62
2022/03/20 10:05:35;;;;;;;;;30.75;26.75;;;;;13.30;40.96;100974.03;5095250;28;8836;-62
2022/03/20 10:08:03;;;;;;;;;38.25;33.00;;;;;13.39;40.79;100979.56;5095861;28;8860;-62
2022/03/20 10:10:31;;;;;;;;;26.75;24.25;;;;;13.41;40.29;100972.28;5097009;28;8828;-62
2022/03/20 10:13:00;;;;;;;;;29.00;26.75;;;;;13.45;40.06;100970.22;5097627;28;8839;-62
2022/03/20 10:15:28;;;;;;;;;27.75;27.00;;;;;13.50;40.14;100968.03;5097184;28;8836;-62
2022/03/20 10:18:01;;;;;;;;;34.00;28.50;;;;;13.64;40.22;100962.50;5096754;28;8877;-62
2022/03/20 10:20:29;;;;;;;;;21.00;19.00;;;;;13.76;39.54;100969.63;5096285;28;8847;-62
2022/03/20 10:22:56;;;;;;;;;32.25;30.00;;;;;13.70;39.81;100960.22;5095903;28;8994;-62
2022/03/20 10:25:24;;;;;;;;;34.25;31.00;;;;;13.67;39.88;100949.75;5096591;28;8875;-62
2022/03/20 10:27:53;;;;;;;;;31.00;24.25;;;;;13.58;40.25;100939.75;5102481;28;8826;-63
2022/03/20 10:30:21;;;;;;;;;30.00;27.50;;;;;13.48;40.00;100951.25;5116161;28;8836;-62
2022/03/20 10:32:48;;;;;;;;;35.00;33.50;;;;;13.37;40.68;100960.09;5117044;28;8836;-61
2022/03/20 10:35:17;;;;;;;;;29.50;29.25;;;;;13.24;40.55;100967.34;5116766;28;8844;-61
2022/03/20 10:37:45;;;;;;;;;28.25;27.50;;;;;13.08;40.67;100950.69;5115921;28;8874;-63
2022/03/20 10:40:14;;;;;;;;;31.00;30.00;;;;;12.94;40.81;100952.66;5116733;28;8850;-62
2022/03/20 10:42:41;;;;;;;;;33.00;30.25;;;;;12.80;41.17;100953.66;5116709;28;9510;-62
2022/03/20 10:45:09;;;;;;;;;35.50;32.50;;;;;12.69;41.25;100958.06;5116015;28;9775;-62
2022/03/20 10:47:37;;;;;;;;;38.75;34.50;;;;;12.57;41.10;100950.94;5116268;28;8844;-63
2022/03/20 10:50:05;;;;;;;;;32.00;28.50;;;;;12.51;41.46;100956.72;5116743;28;8877;-62
2022/03/20 10:52:35;;;;;;;;;28.50;25.00;;;;;12.51;41.33;100962.06;5116625;28;8866;-63
2022/03/20 10:55:04;;;;;;;;;28.00;25.00;;;;;12.58;41.06;100957.97;5116648;28;8839;-62
2022/03/20 10:57:32;;;;;;;;;24.75;21.25;;;;;12.71;40.92;100959.69;5110602;28;8818;-62
2022/03/20 10:59:59;;;;;;;;;32.60;32.00;;;;;12.82;40.64;100964.22;5095789;28;8826;-63
2022/03/20 11:02:27;;;;;;;;;24.40;22.60;;;;;12.94;41.20;100969.59;5094030;28;8852;-63
2022/03/20 11:04:55;;;;;;;;;35.20;31.60;;;;;13.10;40.52;100958.59;5093987;28;8926;-62
2022/03/20 11:07:23;;;;;;;;;34.00;31.00;;;;;13.25;40.63;100952.13;5094000;28;8861;-62
2022/03/20 11:09:51;;;;;;;;;32.75;27.75;;;;;13.50;39.94;100946.63;5095179;28;9518;-62
2022/03/20 11:12:19;;;;;;;;;21.50;20.75;;;;;13.73;39.08;100948.44;5095341;28;8818;-65
2022/03/20 11:14:47;;;;;;;;;23.75;22.50;;;;;13.93;39.18;100937.91;5096466;28;9384;-61
2022/03/20 11:17:17;;;;;;;;;24.25;21.75;;;;;14.25;38.87;100940.75;5096406;28;8866;-62
2022/03/20 11:19:46;;;;;;;;;27.75;25.25;;;;;14.62;38.57;100934.16;5094820;28;8926;-62
2022/03/20 11:22:14;;;;;;;;;38.75;32.00;;;;;14.96;37.86;100927.78;5094845;28;9539;-62
2022/03/20 11:24:42;;;;;;;;;22.00;19.50;;;;;15.27;37.56;100935.00;5095617;28;8853;-63
2022/03/20 11:27:11;;;;;;;;;26.50;23.50;;;;;15.74;37.10;100926.53;5097696;28;8846;-62
2022/03/20 11:29:38;;;;;;;;;35.75;28.75;;;;;16.40;36.01;100924.28;5114971;28;8816;-63
2022/03/20 11:32:09;;;;;;;;;33.00;30.50;;;;;17.12;35.46;100915.84;5115735;28;9635;-63
2022/03/20 11:34:37;;;;;;;;;31.00;29.00;;;;;17.65;34.46;100908.22;5115473;28;8963;-62
2022/03/20 11:37:04;;;;;;;;;31.25;27.50;;;;;17.91;34.91;100912.03;5115201;28;8920;-63
2022/03/20 11:39:32;;;;;;;;;36.00;31.50;;;;;17.82;34.89;100913.72;5115159;28;9494;-62
2022/03/20 11:42:00;;;;;;;;;45.50;36.50;;;;;17.86;34.78;100912.47;5114968;28;9485;-62
2022/03/20 11:44:28;;;;;;;;;40.25;37.50;;;;;18.00;34.79;100898.50;5115770;28;8970;-62
2022/03/20 11:46:55;;;;;;;;;26.50;24.00;;;;;18.11;34.23;100900.19;5114387;28;8858;-62
2022/03/20 11:49:23;;;;;;;;;37.00;29.75;;;;;18.28;34.79;100902.13;5113756;28;8835;-62
2022/03/20 11:51:51;;;;;;;;;32.50;30.50;;;;;18.73;33.52;100909.31;5115057;28;8865;-63
2022/03/20 11:54:19;;;;;;;;;43.25;31.50;;;;;19.18;33.05;100893.13;5115049;28;8961;-62
2022/03/20 11:56:48;;;;;;;;;35.00;34.00;;;;;19.31;33.11;100877.41;5115030;28;8858;-63
2022/03/20 11:59:15;;;;;;;;;37.25;30.75;;;;;19.74;32.48;100872.91;5095275;28;8826;-63
2022/03/20 12:01:43;;;;;;;;;36.50;32.75;;;;;20.36;32.06;100875.34;5095631;28;8826;-63